Terminal Aerodrome Forecast
Issued by NWS

Home | Current Version | Previous Version | Text Only | Print | Product List | Glossary On
Versions: 1 2 3 4 5 6 7 8 9 10 11 12 13 14 15
000
FTUS45 KRIW 221100
TAFWRL
TAF
KWRL 221126Z 2212/2312 VRB05KT P6SM SCT080 BKN250
     FM221700 15005KT P6SM SCT050 BKN090
     FM222200 12012KT P6SM VCSH SCT030 BKN050
     FM230900 VRB06KT P6SM SCT020 BKN050=

USA.gov is the U.S. government's official web portal to all federal, state and local government web resources and services.